Time;durP1;ratioP1;P1;durP2;ratioP2;P2;SDS_P1;SDS_P2;PMS_P1;PMS_P2;Temp;Humidity;BMP_temperature;BMP_pressure;BME280_temperature;BME280_humidity;BME280_pressure;Samples;Min_cycle;Max_cycle;Signal;HPM_P1;HPM_P2
2023/01/05 05:30:05;;;;;;;2.53;0.70;;;14.50;84.90;;;;;;6109017;23;20081;31
2023/01/05 05:32:30;;;;;;;1.77;0.80;;;14.50;84.70;;;;;;4934357;29;20044;-82
2023/01/05 05:34:56;;;;;;;1.25;0.70;;;14.50;84.80;;;;;;4940727;29;20446;-78
2023/01/05 05:37:21;;;;;;;1.25;0.68;;;14.50;84.70;;;;;;4939532;29;20054;-77
2023/01/05 05:39:47;;;;;;;3.70;0.57;;;14.50;84.70;;;;;;4940281;29;20031;-77
2023/01/05 05:42:13;;;;;;;1.40;0.80;;;14.40;84.80;;;;;;4940463;29;20466;-78
2023/01/05 05:44:38;;;;;;;1.20;0.90;;;14.40;84.90;;;;;;4942195;29;20046;-84
2023/01/05 05:47:04;;;;;;;2.95;0.60;;;14.40;84.90;;;;;;4939468;29;20459;-81
2023/01/05 05:49:34;;;;;;;1.35;0.80;;;14.50;84.70;;;;;;4940656;29;20550;-80
2023/01/05 05:52:00;;;;;;;;;;;14.50;84.50;;;;;;4940425;29;20391;-79
2023/01/05 05:54:25;;;;;;;1.77;0.80;;;14.50;84.40;;;;;;4933549;29;19966;-80
2023/01/05 05:56:51;;;;;;;3.53;0.80;;;14.50;84.30;;;;;;4939506;29;20181;-83
2023/01/05 05:59:17;;;;;;;1.25;0.65;;;14.50;84.10;;;;;;4940471;29;20036;-85
2023/01/05 06:01:42;;;;;;;4.30;0.70;;;14.60;84.20;;;;;;4939417;29;20035;-80
2023/01/05 06:04:08;;;;;;;1.98;0.70;;;14.50;84.00;;;;;;4926039;29;20028;-79
2023/01/05 06:06:38;;;;;;;2.83;0.68;;;14.50;83.90;;;;;;4943923;29;20282;-80
2023/01/05 06:09:04;;;;;;;3.03;0.70;;;14.40;84.00;;;;;;4959942;29;20023;-82
2023/01/05 06:11:30;;;;;;;1.75;0.80;;;14.40;84.00;;;;;;4951613;29;20023;-79
2023/01/05 06:13:56;;;;;;;6.22;1.20;;;14.40;84.10;;;;;;4940210;29;20463;-79
2023/01/05 06:16:22;;;;;;;4.45;1.00;;;14.40;83.90;;;;;;4940837;29;20481;-79
2023/01/05 06:18:47;;;;;;;4.50;1.23;;;14.40;83.80;;;;;;4940307;29;20038;-79
2023/01/05 06:21:13;;;;;;;2.33;0.95;;;14.40;83.70;;;;;;4953349;29;20478;-79
2023/01/05 06:23:48;;;;;;;3.95;1.33;;;14.30;84.00;;;;;;4940685;29;20031;-81
2023/01/05 06:26:14;;;;;;;5.68;1.08;;;14.40;84.00;;;;;;4938174;29;20038;-82
2023/01/05 06:28:39;;;;;;;7.32;1.15;;;14.40;83.80;;;;;;4939002;29;20099;-84
2023/01/05 06:31:05;;;;;;;5.18;1.10;;;14.30;83.50;;;;;;4940210;29;20044;-80
2023/01/05 06:33:31;;;;;;;4.07;0.93;;;14.40;83.80;;;;;;4941586;29;20498;-79
2023/01/05 06:35:59;;;;;;;2.22;1.00;;;14.30;83.50;;;;;;4933674;29;20034;-79
2023/01/05 06:38:25;;;;;;;3.95;1.10;;;14.30;83.30;;;;;;4942482;29;20554;-79
2023/01/05 06:40:51;;;;;;;6.32;1.23;;;14.30;83.70;;;;;;4937907;29;20091;-79
2023/01/05 06:43:17;;;;;;;5.07;1.30;;;14.30;83.50;;;;;;4920784;29;20127;-79
2023/01/05 06:45:43;;;;;;;8.82;1.52;;;14.30;83.60;;;;;;4939147;29;20028;-79
2023/01/05 06:48:09;;;;;;;6.43;1.13;;;14.30;83.40;;;;;;4940097;29;20027;-79
2023/01/05 06:50:34;;;;;;;3.88;1.20;;;14.30;83.30;;;;;;4938972;29;20530;-79
2023/01/05 06:53:00;;;;;;;4.47;1.10;;;14.30;83.40;;;;;;4923191;29;20394;-79
2023/01/05 06:55:26;;;;;;;5.97;1.50;;;14.30;83.30;;;;;;4939325;29;20085;-79
2023/01/05 06:57:54;;;;;;;3.65;1.08;;;14.30;83.40;;;;;;4939426;29;20092;-80
2023/01/05 07:00:20;;;;;;;9.82;1.30;;;14.30;83.20;;;;;;4939506;29;20406;-79
2023/01/05 07:02:46;;;;;;;5.63;1.13;;;14.30;83.30;;;;;;4939108;29;20036;-79
2023/01/05 07:05:12;;;;;;;9.38;1.92;;;14.30;83.30;;;;;;4940000;29;20020;-79
2023/01/05 07:07:38;;;;;;;4.18;1.30;;;14.20;83.00;;;;;;4939967;29;20457;-79
2023/01/05 07:10:04;;;;;;;4.50;1.00;;;14.20;83.20;;;;;;4939263;29;20031;-79
2023/01/05 07:12:29;;;;;;;8.52;1.65;;;14.20;83.10;;;;;;4958068;29;20086;-79
2023/01/05 07:15:12;;;;;;;5.30;1.50;;;14.20;83.30;;;;;;4958926;29;20028;-79
2023/01/05 07:17:38;;;;;;;9.77;1.60;;;14.10;83.20;;;;;;4945565;29;20517;-79
2023/01/05 07:20:05;;;;;;;10.00;1.80;;;14.10;83.30;;;;;;4939478;29;20541;-79
2023/01/05 07:22:31;;;;;;;9.13;1.40;;;14.20;83.30;;;;;;4939542;29;20050;-79
2023/01/05 07:25:00;;;;;;;4.25;1.40;;;14.10;83.30;;;;;;4938302;29;20031;-79
2023/01/05 07:27:26;;;;;;;6.25;1.40;;;14.10;83.20;;;;;;4939534;29;20056;-79
2023/01/05 07:29:51;;;;;;;7.75;1.63;;;14.00;83.10;;;;;;4938991;29;20097;-79
2023/01/05 07:32:17;;;;;;;6.07;1.42;;;14.00;83.30;;;;;;4939096;29;20060;-79
2023/01/05 07:34:43;;;;;;;12.48;1.80;;;14.00;83.30;;;;;;4938838;29;20032;-79
2023/01/05 07:37:09;;;;;;;5.18;2.28;;;14.00;83.20;;;;;;4939392;29;20046;-79
2023/01/05 07:39:35;;;;;;;10.73;2.20;;;13.90;83.10;;;;;;4939378;29;20381;-79
2023/01/05 07:42:01;;;;;;;9.05;2.00;;;13.90;83.30;;;;;;4938757;29;20122;-79
2023/01/05 07:44:26;;;;;;;6.90;2.13;;;13.80;83.10;;;;;;4939140;29;20081;-79
2023/01/05 07:46:52;;;;;;;11.95;2.10;;;13.80;83.30;;;;;;4938477;29;20494;-79
2023/01/05 07:49:18;;;;;;;7.63;2.13;;;13.80;83.40;;;;;;4939323;29;20475;-79
2023/01/05 07:51:44;;;;;;;11.32;2.55;;;13.80;83.30;;;;;;4939235;29;20039;-79
2023/01/05 07:54:09;;;;;;;10.27;2.13;;;13.80;83.30;;;;;;4921672;29;20098;-79
2023/01/05 07:56:35;;;;;;;6.22;1.63;;;13.80;83.20;;;;;;4929822;29;20506;-79
2023/01/05 07:59:00;;;;;;;5.55;1.90;;;13.80;83.20;;;;;;4919911;29;20032;-79
2023/01/05 08:01:26;;;;;;;6.10;1.77;;;13.70;83.20;;;;;;4923252;29;20024;-79
2023/01/05 08:03:52;;;;;;;9.80;2.00;;;13.70;83.20;;;;;;4938898;29;20020;-79
2023/01/05 08:06:20;;;;;;;8.90;1.77;;;13.70;83.40;;;;;;4938802;29;20111;-79
2023/01/05 08:08:46;;;;;;;10.18;3.33;;;13.70;83.20;;;;;;4938802;29;20028;-78
2023/01/05 08:11:14;;;;;;;11.70;3.58;;;13.70;83.20;;;;;;4943650;29;20580;-79
2023/01/05 08:13:59;;;;;;;10.07;1.98;;;13.70;83.20;;;;;;4938663;29;20024;-79
2023/01/05 08:16:26;;;;;;;11.68;2.80;;;13.70;83.20;;;;;;4937881;29;20065;-79
2023/01/05 08:18:53;;;;;;;15.90;2.50;;;13.80;83.30;;;;;;4921624;29;20058;-79
2023/01/05 08:21:19;;;;;;;9.10;3.17;;;13.80;82.90;;;;;;4938637;29;20052;-79
2023/01/05 08:23:45;;;;;;;10.60;2.08;;;13.80;83.10;;;;;;4938015;29;20505;-79
2023/01/05 08:26:13;;;;;;;13.20;2.47;;;13.80;82.90;;;;;;4938593;29;20114;-78
2023/01/05 08:28:39;;;;;;;11.90;2.28;;;13.80;82.80;;;;;;4938649;29;20047;-79
2023/01/05 08:31:16;;;;;;;7.15;1.90;;;13.80;82.90;;;;;;4938078;29;20063;-78
2023/01/05 08:33:42;;;;;;;8.15;2.00;;;13.80;82.90;;;;;;4938231;29;20039;-79
2023/01/05 08:36:18;;;;;;;10.90;2.15;;;13.80;82.90;;;;;;4937427;29;20040;-79
2023/01/05 08:38:48;;;;;;;7.25;1.75;;;13.80;83.00;;;;;;4936935;29;20031;-79
2023/01/05 08:41:16;;;;;;;6.63;1.98;;;13.80;83.00;;;;;;4937917;29;20455;-79
2023/01/05 08:43:42;;;;;;;12.98;3.20;;;13.80;83.00;;;;;;4938061;29;20024;-78
2023/01/05 08:46:08;;;;;;;7.55;1.95;;;13.90;83.00;;;;;;4937583;29;20030;-79
2023/01/05 08:48:33;;;;;;;7.63;2.22;;;13.80;83.10;;;;;;4938299;29;20028;-79
2023/01/05 08:51:05;;;;;;;10.75;2.05;;;13.90;83.20;;;;;;4938334;29;20061;-79
2023/01/05 08:53:30;;;;;;;3.38;1.83;;;13.90;83.20;;;;;;4937885;29;20036;-79
2023/01/05 08:55:56;;;;;;;7.45;1.80;;;13.90;83.30;;;;;;4938377;29;20042;-78
2023/01/05 08:58:22;;;;;;;6.20;2.08;;;14.00;83.50;;;;;;4938248;29;20182;-79
2023/01/05 09:00:47;;;;;;;8.63;2.00;;;14.00;83.50;;;;;;4937580;29;20050;-78
2023/01/05 09:03:13;;;;;;;8.38;2.40;;;14.00;83.40;;;;;;4938049;29;20055;-78
2023/01/05 09:05:38;;;;;;;12.55;2.42;;;14.00;83.50;;;;;;4937557;29;20039;-79
2023/01/05 09:08:04;;;;;;;13.18;2.65;;;14.10;83.50;;;;;;4938185;29;20032;-79
2023/01/05 09:10:30;;;;;;;7.95;2.03;;;14.10;83.70;;;;;;4940415;29;20040;-79
2023/01/05 09:12:55;;;;;;;15.45;2.17;;;14.10;83.60;;;;;;4954093;29;20051;-79
2023/01/05 09:15:21;;;;;;;8.63;2.10;;;14.20;83.60;;;;;;4937908;29;20036;-79
2023/01/05 09:17:47;;;;;;;7.97;2.22;;;14.30;83.50;;;;;;4938074;29;20094;-79
2023/01/05 09:20:13;;;;;;;11.88;2.08;;;14.30;83.40;;;;;;4937500;29;20498;-79
2023/01/05 09:22:39;;;;;;;8.32;2.28;;;14.30;83.40;;;;;;4937950;29;20033;-79
2023/01/05 09:25:04;;;;;;;7.82;2.03;;;14.30;83.50;;;;;;4937959;29;20034;-79
2023/01/05 09:27:30;;;;;;;9.05;1.98;;;14.30;83.50;;;;;;4937463;29;20032;-79
2023/01/05 09:29:56;;;;;;;12.13;2.15;;;14.30;83.50;;;;;;4921054;29;20039;-79
2023/01/05 09:32:22;;;;;;;10.80;2.10;;;14.40;83.40;;;;;;4936910;29;20454;-79
2023/01/05 09:34:48;;;;;;;12.00;1.88;;;14.40;83.30;;;;;;4936616;29;20054;-79
2023/01/05 09:37:14;;;;;;;8.45;2.20;;;14.40;83.40;;;;;;4937680;29;20039;-79
2023/01/05 09:39:40;;;;;;;8.13;1.92;;;14.40;83.30;;;;;;4937989;29;20030;-79
2023/01/05 09:42:11;;;;;;;16.67;3.58;;;14.40;83.30;;;;;;4937588;29;20043;-79
2023/01/05 09:44:43;;;;;;;9.25;2.15;;;14.50;83.30;;;;;;4937842;29;20854;-79
2023/01/05 09:47:09;;;;;;;12.00;2.42;;;14.40;83.30;;;;;;4937972;29;20031;-79
2023/01/05 09:49:35;;;;;;;16.23;2.88;;;14.50;83.40;;;;;;4941211;29;20035;-79
2023/01/05 09:52:07;;;;;;;12.02;2.20;;;14.50;83.20;;;;;;4940765;29;20125;-79
2023/01/05 09:54:34;;;;;;;13.18;2.38;;;14.60;83.20;;;;;;4941138;29;20023;-79
2023/01/05 09:57:00;;;;;;;9.73;1.80;;;14.60;82.90;;;;;;4926141;29;20139;-79
2023/01/05 09:59:30;;;;;;;17.75;2.80;;;14.60;83.00;;;;;;4921961;29;20032;-79
2023/01/05 10:02:03;;;;;;;13.82;2.20;;;14.60;82.90;;;;;;4936983;29;20035;-79
2023/01/05 10:04:32;;;;;;;4.88;1.63;;;14.70;82.90;;;;;;4940539;29;20034;-79
2023/01/05 10:07:07;;;;;;;9.48;1.85;;;14.60;82.90;;;;;;4940854;29;20035;-79
2023/01/05 10:09:38;;;;;;;6.53;1.88;;;14.70;82.80;;;;;;4940944;29;20494;-79
2023/01/05 10:15:26;;;;;;;10.10;2.25;;;14.80;82.20;;;;;;4937981;29;20091;-79
2023/01/05 10:17:52;;;;;;;5.90;1.92;;;14.80;82.20;;;;;;4940799;29;20035;-79
2023/01/05 10:20:38;;;;;;;10.48;1.63;;;14.80;82.00;;;;;;4940211;29;20035;-79
2023/01/05 10:23:18;;;;;;;7.25;1.83;;;14.80;81.30;;;;;;4940744;29;20034;-79
2023/01/05 10:25:49;;;;;;;;;;;14.80;81.90;;;;;;4941083;29;20487;-79
2023/01/05 10:28:18;;;;;;;4.70;1.20;;;14.80;81.60;;;;;;4940205;29;19907;-79
2023/01/05 10:31:12;;;;;;;7.57;1.83;;;14.80;81.40;;;;;;4940448;29;20060;-80
2023/01/05 10:33:48;;;;;;;8.38;1.67;;;14.90;81.20;;;;;;4940355;29;20083;-79
2023/01/05 10:36:19;;;;;;;8.70;1.70;;;14.90;81.20;;;;;;4940413;29;20430;-79
2023/01/05 10:38:51;;;;;;;5.03;1.48;;;14.90;81.00;;;;;;4924689;29;20031;-79
2023/01/05 10:41:24;;;;;;;9.32;1.13;;;14.90;80.60;;;;;;4924309;29;20451;-79
2023/01/05 10:44:05;;;;;;;5.72;1.50;;;14.90;80.60;;;;;;4933818;29;20031;-79
2023/01/05 10:46:31;;;;;;;6.55;1.55;;;15.00;80.40;;;;;;4939626;29;20185;-79
2023/01/05 10:48:58;;;;;;;7.97;2.22;;;14.90;80.30;;;;;;4940160;29;20059;-79
2023/01/05 10:51:25;;;;;;;5.57;1.45;;;14.90;80.50;;;;;;4938366;29;20462;-79
2023/01/05 10:53:52;;;;;;;7.13;1.48;;;14.90;80.30;;;;;;4940092;29;20055;-79
2023/01/05 10:56:28;;;;;;;5.47;1.23;;;15.00;80.20;;;;;;4938582;29;20028;-79
2023/01/05 10:59:10;;;;;;;5.07;1.25;;;14.90;80.10;;;;;;4939162;29;20020;-79
2023/01/05 11:01:41;;;;;;;7.60;1.50;;;14.90;80.00;;;;;;4939227;29;20051;-79
2023/01/05 11:04:27;;;;;;;;;;;14.80;79.80;;;;;;4940430;29;20771;-79
2023/01/05 11:07:03;;;;;;;7.72;1.88;;;14.80;79.60;;;;;;4939124;29;20364;-79
2023/01/05 11:09:29;;;;;;;3.72;1.60;;;14.80;79.70;;;;;;4939990;29;20063;-79
2023/01/05 11:11:59;;;;;;;9.00;1.58;;;14.90;79.70;;;;;;4941824;29;20028;-79
2023/01/05 11:14:28;;;;;;;8.88;1.77;;;14.80;79.30;;;;;;4957596;29;20066;-79
2023/01/05 11:17:01;;;;;;;8.57;1.23;;;14.80;79.60;;;;;;4947018;29;20059;-79
2023/01/05 11:19:33;;;;;;;9.43;1.92;;;14.90;79.60;;;;;;4939622;29;20031;-79
2023/01/05 11:21:59;;;;;;;5.78;1.63;;;14.90;79.50;;;;;;4939215;29;20039;-79
2023/01/05 11:24:31;;;;;;;9.18;1.60;;;14.90;79.40;;;;;;4939461;29;20396;-78
2023/01/05 11:27:02;;;;;;;7.93;1.63;;;14.90;79.10;;;;;;4939457;29;20501;-79
2023/01/05 11:29:28;;;;;;;4.82;1.55;;;14.90;79.20;;;;;;4937613;29;20042;-79
2023/01/05 11:32:02;;;;;;;7.10;1.95;;;15.00;79.30;;;;;;4938972;29;20055;-79
2023/01/05 11:34:48;;;;;;;6.80;2.25;;;15.00;79.20;;;;;;4922229;29;20031;-79
2023/01/05 11:37:25;;;;;;;8.20;2.10;;;14.90;78.80;;;;;;4939260;29;20034;-88
2023/01/05 11:39:55;;;;;;;7.68;1.80;;;15.00;78.80;;;;;;4938829;29;20046;-81
2023/01/05 11:42:24;;;;;;;8.10;1.55;;;14.90;79.00;;;;;;4922541;29;20058;-82
2023/01/05 11:44:57;;;;;;;9.85;1.63;;;15.00;78.70;;;;;;4939258;29;20051;-75
2023/01/05 11:47:53;;;;;;;8.13;1.70;;;15.00;78.60;;;;;;4938547;29;20031;-77
2023/01/05 11:50:30;;;;;;;5.18;1.58;;;15.00;78.30;;;;;;4938950;29;20402;-75
2023/01/05 11:53:01;;;;;;;8.63;1.95;;;15.00;78.30;;;;;;4936179;29;20032;-75
2023/01/05 11:55:38;;;;;;;6.82;1.45;;;15.00;78.30;;;;;;4936223;29;20406;-76
2023/01/05 11:58:16;;;;;;;8.88;1.30;;;15.10;78.00;;;;;;4938955;29;20068;-76
2023/01/05 12:01:17;;;;;;;10.10;1.90;;;15.00;78.00;;;;;;4922875;29;20036;-75
2023/01/05 12:03:55;;;;;;;4.93;1.67;;;15.00;77.80;;;;;;4938382;29;20027;-75
2023/01/05 12:06:57;;;;;;;6.60;1.48;;;15.00;77.50;;;;;;4921680;29;20035;-76
2023/01/05 12:09:44;;;;;;;9.85;1.55;;;15.00;77.70;;;;;;4938744;29;20035;-76
2023/01/05 12:12:15;;;;;;;8.48;1.67;;;15.00;77.90;;;;;;4954257;29;20117;-76
2023/01/05 12:14:57;;;;;;;6.93;1.33;;;15.00;76.90;;;;;;4957624;29;20023;-76
2023/01/05 12:17:56;;;;;;;5.43;1.30;;;15.00;77.20;;;;;;4919440;29;20110;-76
2023/01/05 12:20:35;;;;;;;3.33;1.33;;;15.10;77.00;;;;;;4919993;29;20034;-77
2023/01/05 12:23:18;;;;;;;5.22;1.30;;;15.10;76.80;;;;;;4929309;29;20031;-80
2023/01/05 12:26:03;;;;;;;4.63;1.63;;;15.10;76.90;;;;;;4938242;29;20036;-79
2023/01/05 12:28:55;;;;;;;5.95;1.55;;;15.10;76.80;;;;;;4938831;29;20019;-83
2023/01/05 12:31:57;;;;;;;3.42;1.15;;;15.20;76.90;;;;;;4936398;29;20138;-80
2023/01/05 12:34:35;;;;;;;5.40;1.40;;;15.10;76.60;;;;;;4938558;29;20465;-82
2023/01/05 12:37:11;;;;;;;5.80;1.33;;;15.20;76.70;;;;;;4937940;29;20036;-84
2023/01/05 12:40:04;;;;;;;4.53;1.42;;;15.20;76.50;;;;;;4937116;29;20032;-82
2023/01/05 12:43:01;;;;;;;6.57;1.60;;;15.20;76.20;;;;;;4938582;29;20133;-81
2023/01/05 12:45:45;;;;;;;4.57;1.50;;;15.20;75.70;;;;;;4933400;29;20043;-79
2023/01/05 12:48:13;;;;;;;5.22;1.88;;;15.10;75.50;;;;;;4934769;29;20043;-79
2023/01/05 12:51:06;;;;;;;4.63;1.33;;;15.20;75.80;;;;;;4938377;29;20034;-77
2023/01/05 12:53:34;;;;;;;3.88;1.58;;;15.10;75.90;;;;;;4938117;29;20032;-79
2023/01/05 12:56:10;;;;;;;5.32;1.27;;;15.20;75.90;;;;;;4937851;29;20122;-77
2023/01/05 12:58:41;;;;;;;7.43;1.95;;;15.20;75.70;;;;;;4938173;29;20040;-77
2023/01/05 13:01:20;;;;;;;6.20;1.05;;;15.20;75.30;;;;;;4938162;29;20398;-77
2023/01/05 13:04:03;;;;;;;6.80;1.30;;;15.20;75.20;;;;;;4937784;29;20070;-76
2023/01/05 13:06:38;;;;;;;4.80;1.27;;;15.20;75.00;;;;;;4937747;29;20024;-76
2023/01/05 13:09:21;;;;;;;7.05;1.77;;;15.20;75.20;;;;;;4938097;29;20027;-76
2023/01/05 13:12:00;;;;;;;5.13;1.52;;;15.30;74.80;;;;;;4950533;29;20055;-76
2023/01/05 13:14:40;;;;;;;8.27;1.58;;;15.20;74.10;;;;;;4944920;29;20437;-76
2023/01/05 13:17:34;;;;;;;6.65;1.25;;;15.20;74.20;;;;;;4937976;29;20505;-76
2023/01/05 13:20:23;;;;;;;5.68;1.30;;;15.20;74.70;;;;;;4930211;29;20044;-76
2023/01/05 13:22:53;;;;;;;4.30;1.70;;;15.20;74.80;;;;;;4939282;29;20039;-76
2023/01/05 13:25:21;;;;;;;;;;;15.30;74.80;;;;;;4942162;29;20601;-76
2023/01/05 13:27:46;;;;;;;2.83;1.40;;;15.30;74.90;;;;;;4924711;29;19915;-77
2023/01/05 13:30:29;;;;;;;4.75;1.42;;;15.30;74.50;;;;;;4941379;29;20159;-76
2023/01/05 13:33:04;;;;;;;7.70;1.80;;;15.30;74.60;;;;;;4941030;29;20047;-77
2023/01/05 13:35:41;;;;;;;5.20;1.83;;;15.30;74.30;;;;;;4941431;29;20030;-77
2023/01/05 13:38:07;;;;;;;10.02;1.58;;;15.30;74.60;;;;;;4940458;29;20915;-77
2023/01/05 13:40:53;;;;;;;10.00;1.83;;;15.30;74.50;;;;;;4941407;29;20062;-77
2023/01/05 13:43:49;;;;;;;7.07;2.00;;;15.30;74.00;;;;;;4937944;29;20558;-79
2023/01/05 13:46:33;;;;;;;3.80;1.38;;;15.30;74.30;;;;;;4941492;29;20413;-81
2023/01/05 13:49:33;;;;;;;5.10;1.35;;;15.20;74.40;;;;;;4941185;29;20067;-82
2023/01/05 13:52:10;;;;;;;6.30;1.60;;;15.20;74.40;;;;;;4938816;29;20063;-80
2023/01/05 13:54:51;;;;;;;6.38;1.40;;;15.30;74.40;;;;;;4924236;29;20066;-81
2023/01/05 13:57:26;;;;;;;1.92;1.20;;;15.30;74.50;;;;;;4941300;29;20549;-81
2023/01/05 13:59:59;;;;;;;6.78;1.05;;;15.30;73.90;;;;;;4940798;29;20039;-80
2023/01/05 14:02:37;;;;;;;3.83;1.17;;;15.30;73.60;;;;;;4907172;29;20517;-76
2023/01/05 14:05:15;;;;;;;4.18;1.17;;;15.30;74.00;;;;;;4921987;29;20487;-76
2023/01/05 14:07:41;;;;;;;5.63;1.58;;;15.30;73.30;;;;;;4933459;29;20443;-77
2023/01/05 14:10:21;;;;;;;4.75;1.40;;;15.30;72.90;;;;;;4941049;29;20078;-77
2023/01/05 14:12:48;;;;;;;6.28;1.55;;;15.20;72.90;;;;;;4927780;29;20034;-76
2023/01/05 14:15:33;;;;;;;3.63;1.15;;;15.30;72.40;;;;;;4940396;29;20059;-77
2023/01/05 14:18:01;;;;;;;6.38;1.20;;;15.20;72.30;;;;;;4920751;29;20569;-77
2023/01/05 14:20:47;;;;;;;3.45;1.63;;;15.30;72.80;;;;;;4939603;29;20063;-77
2023/01/05 14:23:25;;;;;;;5.82;1.58;;;15.30;72.20;;;;;;4940130;29;20056;-76
2023/01/05 14:25:56;;;;;;;2.85;1.13;;;15.30;72.20;;;;;;4923421;29;20034;-76
2023/01/05 14:28:27;;;;;;;5.30;1.20;;;15.30;72.10;;;;;;4940556;29;20387;-77
2023/01/05 14:31:17;;;;;;;4.25;1.27;;;15.30;72.20;;;;;;4939899;29;20127;-77
2023/01/05 14:33:58;;;;;;;3.35;1.10;;;15.30;72.20;;;;;;4940231;29;20023;-77
2023/01/05 14:36:24;;;;;;;4.45;1.00;;;15.20;71.80;;;;;;4923158;29;20040;-77
2023/01/05 14:38:50;;;;;;;3.47;1.23;;;15.20;71.70;;;;;;4923137;29;20059;-77
2023/01/05 14:41:26;;;;;;;4.50;1.20;;;15.20;71.70;;;;;;4940463;29;20032;-77
2023/01/05 14:43:59;;;;;;;6.07;1.02;;;15.20;72.20;;;;;;4939753;29;20097;-76
2023/01/05 14:46:26;;;;;;;5.55;0.88;;;15.10;71.80;;;;;;4938800;29;20038;-77
2023/01/05 14:49:04;;;;;;;5.40;1.25;;;15.10;71.70;;;;;;4940122;29;20155;-77
2023/01/05 14:51:34;;;;;;;3.83;0.98;;;15.00;72.10;;;;;;4940110;29;20043;-76
2023/01/05 14:54:04;;;;;;;;;;;14.90;72.70;;;;;;4939709;29;20086;-77
2023/01/05 14:56:32;;;;;;;4.10;1.08;;;14.90;72.40;;;;;;4940099;29;20280;-77
2023/01/05 14:59:22;;;;;;;7.93;1.63;;;14.90;72.90;;;;;;4923051;29;20032;-77
2023/01/05 15:02:01;;;;;;;4.95;1.60;;;14.80;73.40;;;;;;4920861;29;20538;-76
2023/01/05 15:04:36;;;;;;;2.65;0.93;;;14.80;73.80;;;;;;4929298;29;20024;-76
2023/01/05 15:07:39;;;;;;;4.82;1.00;;;14.80;74.30;;;;;;4939993;29;20027;-76
2023/01/05 15:10:23;;;;;;;4.90;0.95;;;14.80;74.50;;;;;;4922042;29;20036;-76
2023/01/05 15:12:55;;;;;;;2.45;0.80;;;14.80;75.00;;;;;;4924132;29;20351;-76
2023/01/05 15:15:59;;;;;;;4.07;1.10;;;14.70;75.00;;;;;;4938225;29;20055;-77
2023/01/05 15:18:25;;;;;;;2.78;0.88;;;14.80;75.00;;;;;;4930717;29;20051;-76
2023/01/05 15:21:08;;;;;;;3.55;1.02;;;14.80;75.10;;;;;;4939669;29;20058;-76
2023/01/05 15:23:37;;;;;;;3.53;1.30;;;14.80;75.10;;;;;;4939649;29;20078;-76
2023/01/05 15:26:24;;;;;;;4.03;1.70;;;14.80;75.40;;;;;;4939510;29;20776;-77
2023/01/05 15:29:05;;;;;;;2.00;0.90;;;14.70;75.40;;;;;;4938996;29;20059;-76
2023/01/05 15:31:47;;;;;;;10.15;1.40;;;14.70;75.40;;;;;;4939259;29;20051;-76
2023/01/05 15:34:19;;;;;;;3.53;1.10;;;14.70;75.30;;;;;;4939382;29;20031;-76
2023/01/05 15:36:50;;;;;;;2.92;0.88;;;14.70;75.50;;;;;;4937678;29;20024;-77
2023/01/05 15:39:28;;;;;;;3.95;1.00;;;14.60;75.40;;;;;;4933786;29;20110;-77
2023/01/05 15:41:56;;;;;;;6.35;1.20;;;14.60;75.50;;;;;;4938955;29;20107;-77
2023/01/05 15:44:24;;;;;;;3.72;0.85;;;14.60;75.70;;;;;;4920518;29;20031;-77
2023/01/05 15:46:50;;;;;;;1.85;0.60;;;14.50;75.30;;;;;;4932445;29;20013;-78
2023/01/05 15:49:23;;;;;;;1.83;0.90;;;14.50;75.40;;;;;;4916295;29;20082;-77
2023/01/05 15:51:52;;;;;;;3.63;1.17;;;14.50;75.40;;;;;;4930493;29;20024;-76
2023/01/05 15:54:24;;;;;;;3.13;0.85;;;14.50;75.30;;;;;;4932527;29;20028;-76
2023/01/05 15:56:50;;;;;;;5.20;0.90;;;14.50;75.50;;;;;;4930311;29;20083;-78
2023/01/05 15:59:38;;;;;;;3.20;0.75;;;14.50;75.30;;;;;;4915805;29;20024;-78
2023/01/05 16:02:27;;;;;;;1.98;0.95;;;14.50;74.90;;;;;;4929375;29;20020;-77
2023/01/05 16:05:17;;;;;;;2.03;1.00;;;14.40;75.10;;;;;;4933133;29;20032;-77
2023/01/05 16:07:53;;;;;;;2.47;1.00;;;14.40;75.10;;;;;;4933640;29;20168;-77
2023/01/05 16:10:25;;;;;;;3.75;0.70;;;14.40;75.00;;;;;;4931296;29;20102;-77
2023/01/05 16:12:58;;;;;;;2.60;0.60;;;14.30;75.40;;;;;;4921147;29;20036;-77
2023/01/05 16:15:24;;;;;;;1.70;0.70;;;14.40;75.60;;;;;;4930167;29;20028;-77
2023/01/05 16:17:54;;;;;;;2.83;0.80;;;14.30;75.50;;;;;;4927964;29;20093;-77
2023/01/05 16:20:23;;;;;;;2.75;0.70;;;14.30;75.40;;;;;;4928045;29;20032;-77
2023/01/05 16:22:59;;;;;;;2.03;0.80;;;14.30;75.70;;;;;;4930374;29;20024;-77
2023/01/05 16:25:28;;;;;;;2.10;1.00;;;14.30;75.90;;;;;;4935225;29;20024;-77
2023/01/05 16:28:04;;;;;;;3.03;0.80;;;14.30;76.10;;;;;;4936847;29;20419;-76
2023/01/05 16:30:37;;;;;;;1.42;0.70;;;14.30;76.10;;;;;;4928898;29;20144;-77
2023/01/05 16:33:23;;;;;;;0.82;0.50;;;14.30;76.60;;;;;;4932644;29;20562;-77
2023/01/05 16:35:54;;;;;;;2.40;0.90;;;14.30;76.70;;;;;;4933781;29;20032;-77
2023/01/05 16:38:24;;;;;;;1.50;0.80;;;14.20;76.90;;;;;;4928304;29;20039;-77
2023/01/05 16:40:50;;;;;;;0.70;0.50;;;14.20;77.10;;;;;;4863212;29;20035;-77
2023/01/05 16:43:37;;;;;;;2.08;0.85;;;14.20;77.30;;;;;;4928878;29;20035;-78
2023/01/05 16:46:17;;;;;;;1.58;0.85;;;14.20;77.60;;;;;;4928478;29;20374;-78
2023/01/05 16:48:52;;;;;;;1.60;0.68;;;14.20;77.70;;;;;;4917197;29;20024;-77
2023/01/05 16:51:42;;;;;;;1.65;0.95;;;14.20;77.70;;;;;;4927903;29;20134;-77
2023/01/05 16:54:16;;;;;;;3.00;0.80;;;14.20;77.80;;;;;;4912606;29;20035;-77
2023/01/05 16:56:56;;;;;;;2.72;0.80;;;14.20;77.90;;;;;;4917276;29;20491;-78
2023/01/05 16:59:38;;;;;;;2.00;1.10;;;14.00;78.80;;;;;;4931982;29;20027;-78
2023/01/05 17:02:27;;;;;;;2.00;0.98;;;14.10;79.20;;;;;;4933958;29;20024;-78
2023/01/05 17:04:52;;;;;;;4.78;1.23;;;14.10;79.30;;;;;;4913055;29;20110;-77
2023/01/05 17:07:42;;;;;;;1.65;0.88;;;14.00;79.40;;;;;;4931710;29;20056;-77
2023/01/05 17:10:16;;;;;;;5.87;1.40;;;14.00;79.50;;;;;;4931165;29;20119;-77
2023/01/05 17:12:42;;;;;;;4.30;0.98;;;13.90;79.60;;;;;;4931265;29;20380;-77
2023/01/05 17:15:19;;;;;;;3.45;1.23;;;13.90;79.90;;;;;;4931086;29;20062;-77
2023/01/05 17:17:45;;;;;;;2.65;1.30;;;13.90;80.00;;;;;;4933957;29;20060;-85
2023/01/05 17:20:11;;;;;;;3.50;1.10;;;13.80;80.10;;;;;;4917241;29;20042;-82
2023/01/05 17:22:37;;;;;;;3.90;1.67;;;13.80;80.60;;;;;;4941005;29;20027;-89
2023/01/05 17:25:03;;;;;;;2.17;1.27;;;13.70;80.60;;;;;;4935306;29;20585;-90
2023/01/05 17:27:29;;;;;;;6.47;1.35;;;13.80;80.80;;;;;;4942800;29;20035;-90
2023/01/05 17:29:55;;;;;;;2.40;1.58;;;13.60;81.20;;;;;;4936489;29;20036;-87
2023/01/05 17:32:21;;;;;;;2.70;1.27;;;13.60;81.40;;;;;;4940030;29;20044;-81
2023/01/05 17:34:46;;;;;;;3.05;1.45;;;13.70;81.40;;;;;;4941598;29;20592;-84
2023/01/05 17:37:15;;;;;;;3.33;1.60;;;13.70;81.50;;;;;;4940675;29;20087;-80
2023/01/05 17:39:41;;;;;;;2.95;1.17;;;13.70;81.60;;;;;;4933216;29;20111;-78
2023/01/05 17:44:51;;;;;;;1.90;0.90;;;13.60;81.90;;;;;;4935721;29;20495;-80
2023/01/05 17:47:16;;;;;;;3.42;1.17;;;13.60;82.00;;;;;;4936686;29;20045;-80
2023/01/05 17:49:42;;;;;;;3.08;1.30;;;13.50;82.20;;;;;;4940606;29;20087;-81
2023/01/05 17:52:08;;;;;;;2.10;0.85;;;13.50;82.30;;;;;;4932263;29;20031;-82
2023/01/05 17:54:34;;;;;;;4.20;1.00;;;13.40;82.40;;;;;;4939543;29;20036;-81
2023/01/05 17:57:00;;;;;;;1.88;1.10;;;13.40;82.60;;;;;;4932235;29;20402;-82
2023/01/05 17:59:26;;;;;;;2.78;1.30;;;13.50;82.60;;;;;;4938628;29;20040;-83
2023/01/05 18:01:54;;;;;;;3.88;1.45;;;13.50;82.70;;;;;;4940035;29;20016;-83
2023/01/05 18:04:22;;;;;;;4.40;1.10;;;13.50;82.60;;;;;;4922396;29;20032;-79
2023/01/05 18:06:47;;;;;;;3.20;1.50;;;13.60;82.50;;;;;;4932466;29;20716;-82
2023/01/05 18:09:13;;;;;;;3.38;1.30;;;13.60;82.40;;;;;;4932465;29;20028;-85
2023/01/05 18:11:39;;;;;;;4.13;1.52;;;13.60;82.20;;;;;;4937342;29;20024;-84
2023/01/05 18:14:05;;;;;;;6.38;1.63;;;13.60;82.20;;;;;;4912221;29;20059;-85
2023/01/05 18:16:31;;;;;;;3.08;1.48;;;13.60;82.40;;;;;;4933413;29;20450;-86
2023/01/05 18:18:56;;;;;;;2.22;1.52;;;13.60;82.50;;;;;;4931342;29;20043;-84
2023/01/05 18:21:22;;;;;;;2.80;1.75;;;13.60;82.90;;;;;;4930563;29;20028;-82
2023/01/05 18:23:47;;;;;;;6.63;1.60;;;13.60;82.70;;;;;;4934195;29;20021;-82
2023/01/05 18:26:13;;;;;;;6.95;2.00;;;13.60;82.90;;;;;;4914074;29;20368;-81
2023/01/05 18:28:39;;;;;;;3.55;1.70;;;13.60;82.90;;;;;;4931944;29;20490;-76
2023/01/05 18:31:09;;;;;;;2.90;2.40;;;13.60;82.70;;;;;;4931692;29;20623;-77
2023/01/05 18:33:35;;;;;;;9.10;2.35;;;13.60;82.70;;;;;;4935938;29;20036;-78
2023/01/05 18:36:09;;;;;;;5.80;2.38;;;13.50;82.90;;;;;;4928091;29;20553;-83
2023/01/05 18:38:36;;;;;;;4.05;1.70;;;13.60;82.80;;;;;;4930150;29;20529;-86
2023/01/05 18:41:02;;;;;;;3.05;1.95;;;13.60;82.90;;;;;;4931573;29;20036;-83
2023/01/05 18:43:27;;;;;;;7.72;3.03;;;13.60;82.80;;;;;;4930472;29;20075;-79
2023/01/05 18:45:54;;;;;;;6.43;2.90;;;13.60;82.70;;;;;;4937683;29;20478;-80
2023/01/05 18:48:20;;;;;;;3.47;1.80;;;13.60;82.80;;;;;;4940926;29;20403;-81